Albatros — C6CN4 — position and weather

sailwx.info

Track history (hours):
 
Tides and Currents Weather Stations Pressure Air Temp Water Temp Dewpoint Dewpoint Depression Visibility Wind Speed Wind Dir Waves Ship Positions

Albatros

Last reported at 2019-Sep-17 23:40 UTC. Time now 2019-Sep-19 19:03 UTC.
Position N 44°25' W 063°15'.

Length 205.5 m; beam 25.2 m; draft 7.6 m.

Type: Passenger vessel. MMSI: 308784000.

Date/timePositionNaut miles runAvg speedWind from/ knotsBaromVisibWave heightAir tempDewpointWater temp
2019-Sep-17 23:40N 44°25' W 063°15'316.4
2019-Sep-17 23:30N 44°25' W 063°19'1014.3
2019-Sep-17 22:48N 44°31' W 063°31'311.5
2019-Sep-17 22:30N 44°34' W 063°32'5 9.1
2019-Sep-17 22:01N 44°39' W 063°34'0 0.1
2019-Sep-17 21:30N 44°38' W 063°34'0 0.0
2019-Sep-17 21:00N 44°38' W 063°34'0 0.0
2019-Sep-17 20:30N 44°38' W 063°34'0 0.0
2019-Sep-17 20:00N 44°38' W 063°34'0 0.0
2019-Sep-17 19:30N 44°38' W 063°34'0 0.0
2019-Sep-17 19:00N 44°38' W 063°34'0 0.0
2019-Sep-17 18:30N 44°38' W 063°34'0 0.0
2019-Sep-17 18:00N 44°38' W 063°34'0 0.0
2019-Sep-17 17:30N 44°38' W 063°34'0 0.0
2019-Sep-17 17:00N 44°38' W 063°34'0 0.0
2019-Sep-17 16:30N 44°38' W 063°34'0 0.0
2019-Sep-17 16:00N 44°38' W 063°34'0 0.0
2019-Sep-17 15:27N 44°38' W 063°34'0 0.0
2019-Sep-17 15:00N 44°38' W 063°34'0 0.0
2019-Sep-17 14:30N 44°38' W 063°34'0 0.0
2019-Sep-17 14:00N 44°38' W 063°34'0 0.0
2019-Sep-17 13:27N 44°38' W 063°34'0 0.0
2019-Sep-17 12:57N 44°38' W 063°34'0 0.0
2019-Sep-17 12:24N 44°38' W 063°34'0 0.0
2019-Sep-17 12:00N 44°38' W 063°34'0 0.0
2019-Sep-17 11:30N 44°38' W 063°34'1 2.2
2019-Sep-17 11:00N 44°38' W 063°33'612.4
2019-Sep-17 10:30N 44°32' W 063°31'612.5
2019-Sep-17 10:00N 44°28' W 063°24'815.8
2019-Sep-17 09:29N 44°28' W 063°13'713.6
2019-Sep-17 09:00N 44°28' W 063°03'713.7
2019-Sep-17 08:30N 44°29' W 062°54'  
2019-Sep-14 01:18N 46°04' W 073°05'611.7
2019-Sep-14 00:49N 45°59' W 073°11'413.7
2019-Sep-14 00:30N 45°55' W 073°13'713.6
2019-Sep-14 00:00N 45°50' W 073°18'713.8
2019-Sep-13 23:30N 45°44' W 073°25'713.8
2019-Sep-13 23:01N 45°38' W 073°29'611.5
2019-Sep-13 22:30N 45°33' W 073°31'3 5.2
2019-Sep-13 21:58N 45°30' W 073°33'0 0.0
2019-Sep-13 21:25N 45°30' W 073°33'0 0.0
2019-Sep-13 20:55N 45°30' W 073°33'0 0.0
2019-Sep-13 20:28N 45°30' W 073°33'0 0.0
2019-Sep-13 19:58N 45°30' W 073°33'0 0.0
2019-Sep-13 19:28N 45°30' W 073°33'0 0.0
2019-Sep-13 18:58N 45°30' W 073°33'0 0.0
2019-Sep-13 18:25N 45°30' W 073°33'0 0.0
2019-Sep-13 17:35N 45°30' W 073°33'0 0.0
2019-Sep-13 17:28N 45°30' W 073°33'0 0.0
2019-Sep-13 16:55N 45°30' W 073°33'0 0.0
2019-Sep-13 16:05N 45°30' W 073°33'0 0.0
2019-Sep-13 15:58N 45°30' W 073°33'0 0.0
2019-Sep-13 15:28N 45°30' W 073°33'0 0.0
2019-Sep-13 14:55N 45°30' W 073°33'0 0.0
2019-Sep-13 14:28N 45°30' W 073°33'0 0.0
2019-Sep-13 13:55N 45°30' W 073°33'0 0.0
2019-Sep-13 13:19N 45°30' W 073°33'0 0.0
2019-Sep-13 12:58N 45°30' W 073°33'0 0.0
2019-Sep-13 11:58N 45°30' W 073°33'0 0.2
2019-Sep-13 11:30N 45°30' W 073°33'1 1.4
2019-Sep-13 11:00N 45°31' W 073°33'3 5.8
2019-Sep-13 10:30N 45°34' W 073°31'4 8.8
2019-Sep-13 10:01N 45°38' W 073°29'610.1
2019-Sep-13 09:24N 45°43' W 073°26'410.0
2019-Sep-13 09:00N 45°47' W 073°22'510.2
2019-Sep-13 08:30N 45°50' W 073°17'510.3
2019-Sep-13 08:00N 45°55' W 073°13'611.4
2019-Sep-13 07:31N 45°60' W 073°11'5 9.9
2019-Sep-13 06:59N 46°04' W 073°05'710.1
2019-Sep-13 06:18N 46°08' W 072°57'  
Track history (hours):
 
Tides and Currents Weather Stations Pressure Air Temp Water Temp Dewpoint Dewpoint Depression Visibility Wind Speed Wind Dir Waves Ship Positions

Albatros

Last reported at 2019-Sep-17 23:40 UTC. Time now 2019-Sep-19 19:03 UTC.
Position N 44°25' W 063°15'.

Length 205.5 m; beam 25.2 m; draft 7.6 m.

Type: Passenger vessel. MMSI: 308784000.

Date/timePositionNaut miles runAvg speedWind from/ knotsBaromVisibWave heightAir tempDewpointWater temp
2019-Sep-17 23:40N 44°25' W 063°15'316.4
2019-Sep-17 23:30N 44°25' W 063°19'1014.3
2019-Sep-17 22:48N 44°31' W 063°31'311.5
2019-Sep-17 22:30N 44°34' W 063°32'5 9.1
2019-Sep-17 22:01N 44°39' W 063°34'0 0.1
2019-Sep-17 21:30N 44°38' W 063°34'0 0.0
2019-Sep-17 21:00N 44°38' W 063°34'0 0.0
2019-Sep-17 20:30N 44°38' W 063°34'0 0.0
2019-Sep-17 20:00N 44°38' W 063°34'0 0.0
2019-Sep-17 19:30N 44°38' W 063°34'0 0.0
2019-Sep-17 19:00N 44°38' W 063°34'0 0.0
2019-Sep-17 18:30N 44°38' W 063°34'0 0.0
2019-Sep-17 18:00N 44°38' W 063°34'0 0.0
2019-Sep-17 17:30N 44°38' W 063°34'0 0.0
2019-Sep-17 17:00N 44°38' W 063°34'0 0.0
2019-Sep-17 16:30N 44°38' W 063°34'0 0.0
2019-Sep-17 16:00N 44°38' W 063°34'0 0.0
2019-Sep-17 15:27N 44°38' W 063°34'0 0.0
2019-Sep-17 15:00N 44°38' W 063°34'0 0.0
2019-Sep-17 14:30N 44°38' W 063°34'0 0.0
2019-Sep-17 14:00N 44°38' W 063°34'0 0.0
2019-Sep-17 13:27N 44°38' W 063°34'0 0.0
2019-Sep-17 12:57N 44°38' W 063°34'0 0.0
2019-Sep-17 12:24N 44°38' W 063°34'0 0.0
2019-Sep-17 12:00N 44°38' W 063°34'0 0.0
2019-Sep-17 11:30N 44°38' W 063°34'1 2.2
2019-Sep-17 11:00N 44°38' W 063°33'612.4
2019-Sep-17 10:30N 44°32' W 063°31'612.5
2019-Sep-17 10:00N 44°28' W 063°24'815.8
2019-Sep-17 09:29N 44°28' W 063°13'713.6
2019-Sep-17 09:00N 44°28' W 063°03'713.7
2019-Sep-17 08:30N 44°29' W 062°54'  
2019-Sep-14 01:18N 46°04' W 073°05'611.7
2019-Sep-14 00:49N 45°59' W 073°11'413.7
2019-Sep-14 00:30N 45°55' W 073°13'713.6
2019-Sep-14 00:00N 45°50' W 073°18'713.8
2019-Sep-13 23:30N 45°44' W 073°25'713.8
2019-Sep-13 23:01N 45°38' W 073°29'611.5
2019-Sep-13 22:30N 45°33' W 073°31'3 5.2
2019-Sep-13 21:58N 45°30' W 073°33'0 0.0
2019-Sep-13 21:25N 45°30' W 073°33'0 0.0
2019-Sep-13 20:55N 45°30' W 073°33'0 0.0
2019-Sep-13 20:28N 45°30' W 073°33'0 0.0
2019-Sep-13 19:58N 45°30' W 073°33'0 0.0
2019-Sep-13 19:28N 45°30' W 073°33'0 0.0
2019-Sep-13 18:58N 45°30' W 073°33'0 0.0
2019-Sep-13 18:25N 45°30' W 073°33'0 0.0
2019-Sep-13 17:35N 45°30' W 073°33'0 0.0
2019-Sep-13 17:28N 45°30' W 073°33'0 0.0
2019-Sep-13 16:55N 45°30' W 073°33'0 0.0
2019-Sep-13 16:05N 45°30' W 073°33'0 0.0
2019-Sep-13 15:58N 45°30' W 073°33'0 0.0
2019-Sep-13 15:28N 45°30' W 073°33'0 0.0
2019-Sep-13 14:55N 45°30' W 073°33'0 0.0
2019-Sep-13 14:28N 45°30' W 073°33'0 0.0
2019-Sep-13 13:55N 45°30' W 073°33'0 0.0
2019-Sep-13 13:19N 45°30' W 073°33'0 0.0
2019-Sep-13 12:58N 45°30' W 073°33'0 0.0
2019-Sep-13 11:58N 45°30' W 073°33'0 0.2
2019-Sep-13 11:30N 45°30' W 073°33'1 1.4
2019-Sep-13 11:00N 45°31' W 073°33'3 5.8
2019-Sep-13 10:30N 45°34' W 073°31'4 8.8
2019-Sep-13 10:01N 45°38' W 073°29'610.1
2019-Sep-13 09:24N 45°43' W 073°26'410.0
2019-Sep-13 09:00N 45°47' W 073°22'510.2
2019-Sep-13 08:30N 45°50' W 073°17'510.3
2019-Sep-13 08:00N 45°55' W 073°13'611.4
2019-Sep-13 07:31N 45°60' W 073°11'5 9.9
2019-Sep-13 06:59N 46°04' W 073°05'710.1
2019-Sep-13 06:18N 46°08' W 072°57'  

Dump ship's entire track history